createdAt,value
2023-05-02T00:01:13.503Z,12.13
2023-05-02T00:04:15.214Z,6.77
2023-05-02T00:07:16.883Z,6.17
2023-05-02T00:10:19.119Z,8.83
2023-05-02T00:13:21.041Z,5.77
2023-05-02T00:16:22.873Z,8.20
2023-05-02T00:19:24.584Z,6.13
2023-05-02T00:22:26.269Z,9.80
2023-05-02T00:25:27.931Z,10.50
2023-05-02T00:28:30.597Z,7.73
2023-05-02T00:31:32.329Z,8.63
2023-05-02T00:34:34.167Z,7.77
2023-05-02T00:37:36.100Z,6.57
2023-05-02T00:40:47.954Z,9.37
2023-05-02T00:43:49.825Z,11.67
2023-05-02T00:46:52.910Z,10.63
2023-05-02T00:49:54.738Z,6.80
2023-05-02T00:52:56.359Z,7.13
2023-05-02T00:55:58.514Z,8.83
2023-05-02T00:59:01.466Z,7.33
2023-05-02T01:02:09.710Z,7.50
2023-05-02T01:05:15.166Z,8.17
2023-05-02T01:08:26.011Z,9.87
2023-05-02T01:11:30.772Z,8.80
2023-05-02T01:14:37.313Z,8.20
2023-05-02T01:17:39.875Z,7.50
2023-05-02T01:20:44.368Z,7.07
2023-05-02T01:23:52.544Z,8.00
2023-05-02T01:27:06.399Z,7.77
2023-05-02T01:30:08.880Z,6.67
2023-05-02T01:33:11.843Z,7.87
2023-05-02T01:36:14.375Z,6.17
2023-05-02T01:39:18.696Z,6.00
2023-05-02T01:42:20.791Z,15.10
2023-05-02T01:45:22.691Z,7.97
2023-05-02T01:48:25.126Z,6.37
2023-05-02T01:51:30.556Z,9.30
2023-05-02T01:54:33.564Z,9.73
2023-05-02T01:57:36.801Z,7.13
2023-05-02T02:00:39.285Z,8.07
2023-05-02T02:03:41.772Z,8.13
2023-05-02T02:06:45.808Z,7.17
2023-05-02T02:09:47.660Z,8.73
2023-05-02T02:12:52.467Z,8.27
2023-05-02T02:15:57.813Z,8.37
2023-05-02T02:19:03.896Z,7.67
2023-05-02T02:22:07.928Z,12.33
2023-05-02T02:25:14.391Z,10.43
2023-05-02T02:28:16.976Z,13.27
2023-05-02T02:31:18.611Z,13.07
2023-05-02T02:34:21.020Z,12.43
2023-05-02T02:37:26.631Z,10.27
2023-05-02T02:40:29.683Z,9.90
2023-05-02T02:43:41.022Z,10.53
2023-05-02T02:47:21.284Z,9.67
2023-05-02T02:50:32.366Z,11.70
2023-05-02T02:53:39.673Z,12.13
2023-05-02T02:56:46.805Z,14.27
2023-05-02T02:59:58.677Z,17.87
2023-05-02T03:03:00.684Z,17.70
2023-05-02T03:06:03.912Z,12.93
2023-05-02T03:09:05.914Z,11.83
2023-05-02T03:12:07.607Z,10.23
2023-05-02T03:15:24.159Z,10.80
2023-05-02T03:18:26.705Z,8.40
2023-05-02T03:21:31.611Z,11.70
2023-05-02T03:24:38.453Z,10.70
2023-05-02T03:27:40.613Z,9.47
2023-05-02T03:30:45.234Z,12.13
2023-05-02T03:33:47.495Z,10.80
2023-05-02T03:36:49.307Z,14.20
2023-05-02T03:39:51.310Z,10.90
2023-05-02T03:42:53.022Z,13.70
2023-05-02T03:46:05.230Z,11.43
2023-05-02T03:49:07.120Z,11.07
2023-05-02T03:52:09.603Z,11.77
2023-05-02T03:55:12.306Z,11.50
2023-05-02T03:58:15.446Z,11.07
2023-05-02T04:01:17.679Z,13.07
2023-05-02T04:04:23.098Z,10.73
2023-05-02T04:07:27.101Z,12.10
2023-05-02T04:10:34.398Z,10.33
2023-05-02T04:13:39.371Z,10.30
2023-05-02T04:16:41.312Z,9.50
2023-05-02T04:19:44.388Z,9.93
2023-05-02T04:22:48.081Z,7.93
2023-05-02T04:25:53.974Z,7.70
2023-05-02T04:28:59.041Z,11.13
2023-05-02T04:32:00.740Z,12.80
2023-05-02T04:35:04.595Z,14.07
2023-05-02T04:38:06.514Z,18.77
2023-05-02T04:41:09.731Z,20.13
2023-05-02T04:44:17.995Z,14.43
2023-05-02T04:47:20.048Z,13.60
2023-05-02T04:50:21.725Z,13.67
2023-05-02T04:53:23.981Z,20.27
2023-05-02T04:56:25.873Z,13.30
2023-05-02T04:59:27.618Z,17.37
2023-05-02T05:02:29.621Z,12.40
2023-05-02T05:05:32.781Z,11.27
2023-05-02T05:08:35.283Z,15.63
2023-05-02T05:11:39.462Z,9.13
2023-05-02T05:14:42.394Z,9.67
2023-05-02T05:17:44.387Z,9.80
2023-05-02T05:20:46.101Z,6.00
2023-05-02T05:23:48.339Z,6.80
2023-05-02T05:26:56.728Z,7.73
2023-05-02T05:29:58.950Z,5.90
2023-05-02T05:33:01.454Z,11.00
2023-05-02T05:36:03.919Z,6.33
2023-05-02T05:39:05.593Z,8.47
2023-05-02T05:42:09.887Z,7.63
2023-05-02T05:45:12.725Z,7.67
2023-05-02T05:48:14.695Z,13.17
2023-05-02T05:51:19.799Z,4.77
2023-05-02T05:54:21.921Z,4.93
2023-05-02T05:57:23.931Z,5.90
2023-05-02T06:00:25.911Z,6.27
2023-05-02T06:03:28.203Z,3.60
2023-05-02T06:06:30.170Z,3.60
2023-05-02T06:09:31.975Z,5.20
2023-05-02T06:12:33.709Z,3.33
2023-05-02T06:15:35.507Z,5.43
2023-05-02T06:18:39.145Z,6.83
2023-05-02T06:21:42.085Z,3.23
2023-05-02T06:24:43.734Z,4.13
2023-05-02T06:27:45.364Z,6.47
2023-05-02T06:30:47.024Z,8.57
2023-05-02T06:33:48.700Z,7.15
2023-05-02T06:36:54.065Z,5.80
2023-05-02T06:39:55.889Z,4.37
2023-05-02T06:42:57.536Z,4.83
2023-05-02T06:46:01.419Z,5.57
2023-05-02T06:49:03.039Z,6.90
2023-05-02T06:52:04.828Z,4.05
2023-05-02T06:55:06.872Z,5.25
2023-05-02T06:58:08.565Z,2.60
2023-05-02T07:01:10.252Z,3.05
2023-05-02T07:04:12.152Z,5.35
2023-05-02T07:07:13.962Z,6.05
2023-05-02T07:10:15.666Z,4.22
2023-05-02T07:13:17.316Z,2.90
2023-05-02T07:16:19.192Z,5.45
2023-05-02T07:19:21.047Z,4.97
2023-05-02T07:22:22.711Z,4.85
2023-05-02T07:25:24.386Z,4.13
2023-05-02T07:28:26.133Z,5.03
2023-05-02T07:31:27.826Z,4.25
2023-05-02T07:34:31.058Z,8.82
2023-05-02T07:37:36.378Z,4.45
2023-05-02T07:40:38.271Z,3.65
2023-05-02T07:43:39.952Z,3.28
2023-05-02T07:46:42.166Z,3.53
2023-05-02T07:49:43.795Z,2.50
2023-05-02T07:52:45.650Z,2.38
2023-05-02T07:55:47.606Z,4.00
2023-05-02T07:58:50.202Z,4.68
2023-05-02T08:01:51.812Z,3.67
2023-05-02T08:04:54.071Z,5.15
2023-05-02T08:07:55.868Z,3.55
2023-05-02T08:10:57.652Z,3.58
2023-05-02T08:13:59.284Z,4.13
2023-05-02T08:17:01.426Z,3.92
2023-05-02T08:20:03.455Z,3.78
2023-05-02T08:23:05.170Z,3.38
2023-05-02T08:26:07.046Z,4.20
2023-05-02T08:29:11.851Z,3.75
2023-05-02T08:32:13.701Z,3.40
2023-05-02T08:35:15.442Z,3.80
2023-05-02T08:38:17.377Z,3.20
2023-05-02T08:41:19.098Z,3.60
2023-05-02T08:44:20.818Z,4.40
2023-05-02T08:47:23.489Z,4.13
2023-05-02T08:50:25.483Z,5.23
2023-05-02T08:53:27.318Z,5.00
2023-05-02T08:56:29.144Z,5.00
2023-05-02T08:59:30.940Z,3.87
2023-05-02T09:02:49.957Z,9.90
2023-05-02T09:06:01.338Z,4.70
2023-05-02T09:09:03.570Z,2.45
2023-05-02T09:12:05.419Z,6.38
2023-05-02T09:15:13.808Z,3.23
2023-05-02T09:18:19.886Z,4.97
2023-05-02T09:21:23.109Z,5.30
2023-05-02T09:24:25.348Z,5.53
2023-05-02T09:27:27.476Z,3.77
2023-05-02T09:30:29.167Z,4.90
2023-05-02T09:33:31.677Z,4.87
2023-05-02T09:36:38.958Z,6.37
2023-05-02T09:39:40.700Z,5.20
2023-05-02T09:42:42.376Z,3.07
2023-05-02T09:45:56.071Z,3.77
2023-05-02T09:48:58.219Z,4.67
2023-05-02T09:52:10.054Z,7.07
2023-05-02T09:55:20.726Z,6.17
2023-05-02T09:58:23.186Z,9.20
2023-05-02T10:01:25.080Z,6.17
2023-05-02T10:04:27.840Z,5.80
2023-05-02T10:07:29.832Z,3.73
2023-05-02T10:10:32.946Z,4.50
2023-05-02T10:13:39.429Z,7.47
2023-05-02T10:17:04.131Z,4.00
2023-05-02T10:20:07.005Z,4.67
2023-05-02T10:23:08.756Z,4.40
2023-05-02T10:26:15.172Z,8.03
2023-05-02T10:29:16.829Z,5.60
2023-05-02T10:32:18.720Z,5.20
2023-05-02T10:35:21.140Z,8.47
2023-05-02T10:38:24.847Z,4.93
2023-05-02T10:41:27.752Z,3.07
2023-05-02T10:44:33.018Z,4.47
2023-05-02T10:47:35.702Z,4.07
2023-05-02T10:50:47.598Z,4.57
2023-05-02T10:53:50.337Z,3.70
2023-05-02T10:57:01.200Z,6.73
2023-05-02T11:00:20.886Z,3.60
2023-05-02T11:03:42.455Z,4.47
2023-05-02T11:07:05.576Z,5.27
2023-05-02T11:10:22.508Z,3.47
2023-05-02T11:13:42.574Z,5.57
2023-05-02T11:17:04.310Z,5.03
2023-05-02T11:20:06.159Z,2.30
2023-05-02T11:23:13.740Z,5.73
2023-05-02T11:26:22.268Z,4.13
2023-05-02T11:29:44.220Z,2.97
2023-05-02T11:32:46.342Z,4.17
2023-05-02T11:35:48.885Z,4.00
2023-05-02T11:38:51.521Z,3.03
2023-05-02T11:41:54.738Z,3.37
2023-05-02T11:44:57.505Z,2.73
2023-05-02T11:47:59.269Z,2.57
2023-05-02T11:51:03.786Z,2.50
2023-05-02T11:54:08.218Z,13.30
2023-05-02T11:57:09.920Z,4.00
2023-05-02T12:00:13.128Z,3.07
2023-05-02T12:03:22.397Z,3.57
2023-05-02T12:06:24.201Z,4.20
2023-05-02T12:09:25.964Z,2.40
2023-05-02T12:12:27.585Z,2.27
2023-05-02T12:15:29.317Z,2.30
2023-05-02T12:18:32.382Z,1.80
2023-05-02T12:21:34.191Z,2.43
2023-05-02T12:24:36.377Z,3.73
2023-05-02T12:27:38.347Z,4.60
2023-05-02T12:30:40.312Z,5.13
2023-05-02T12:33:48.119Z,3.67
2023-05-02T12:36:49.709Z,3.30
2023-05-02T12:39:51.732Z,2.33
2023-05-02T12:43:01.310Z,3.87
2023-05-02T12:46:11.892Z,2.53
2023-05-02T12:49:13.647Z,3.93
2023-05-02T12:52:15.304Z,3.10
2023-05-02T12:55:16.961Z,3.90
2023-05-02T12:58:18.869Z,4.43
2023-05-02T13:01:20.653Z,2.60
2023-05-02T13:04:22.457Z,2.70
2023-05-02T13:07:24.241Z,3.17
2023-05-02T13:10:26.340Z,3.57
2023-05-02T13:13:28.090Z,3.33
2023-05-02T13:16:30.397Z,3.33
2023-05-02T13:19:32.299Z,2.60
2023-05-02T13:22:33.975Z,2.50
2023-05-02T13:25:35.664Z,2.43
2023-05-02T13:28:37.558Z,3.03
2023-05-02T13:31:39.271Z,1.67
2023-05-02T13:34:41.144Z,2.63
2023-05-02T13:37:42.961Z,3.33
2023-05-02T13:40:44.684Z,4.97
2023-05-02T13:43:46.690Z,1.50
2023-05-02T13:46:48.643Z,3.00
2023-05-02T13:49:50.577Z,2.40
2023-05-02T13:52:52.193Z,4.17
2023-05-02T13:55:53.857Z,4.47
2023-05-02T13:58:55.709Z,3.23
2023-05-02T14:01:57.571Z,3.63
2023-05-02T14:04:59.275Z,2.30
2023-05-02T14:08:00.999Z,4.73
2023-05-02T14:11:04.164Z,5.33
2023-05-02T14:14:09.023Z,3.10
2023-05-02T14:17:10.745Z,2.33
2023-05-02T14:20:12.523Z,4.27
2023-05-02T14:23:14.209Z,2.37
2023-05-02T14:26:16.103Z,2.43
2023-05-02T14:29:18.585Z,2.73
2023-05-02T14:32:20.367Z,2.33
2023-05-02T14:35:22.087Z,2.67
2023-05-02T14:38:23.762Z,2.93
2023-05-02T14:41:26.849Z,4.40
2023-05-02T14:44:28.698Z,3.20
2023-05-02T14:47:33.339Z,2.40
2023-05-02T14:50:36.856Z,3.80
2023-05-02T14:53:39.335Z,3.57
2023-05-02T14:56:41.235Z,1.50
2023-05-02T14:59:43.018Z,4.33
2023-05-02T15:02:44.858Z,3.00
2023-05-02T15:05:46.747Z,3.00
2023-05-02T15:08:48.553Z,3.37
2023-05-02T15:11:50.244Z,3.03
2023-05-02T15:14:51.948Z,3.53
2023-05-02T15:17:53.587Z,2.60
2023-05-02T15:20:55.179Z,2.57
2023-05-02T15:23:57.121Z,4.17
2023-05-02T15:26:58.827Z,5.70
2023-05-02T15:30:01.073Z,2.73
2023-05-02T15:33:03.370Z,1.93
2023-05-02T15:36:05.314Z,2.23
2023-05-02T15:39:07.220Z,2.87
2023-05-02T15:42:08.986Z,4.57
2023-05-02T15:45:13.786Z,2.03
2023-05-02T15:48:15.574Z,2.50
2023-05-02T15:51:17.546Z,4.40
2023-05-02T15:54:19.527Z,3.10
2023-05-02T15:57:21.357Z,4.57
2023-05-02T16:00:23.049Z,6.37
2023-05-02T16:03:24.760Z,4.20
2023-05-02T16:06:27.691Z,7.20
2023-05-02T16:09:31.177Z,4.83
2023-05-02T16:12:32.989Z,3.77
2023-05-02T16:15:34.570Z,3.93
2023-05-02T16:18:36.259Z,5.87
2023-05-02T16:21:40.051Z,4.70
2023-05-02T16:24:42.783Z,5.07
2023-05-02T16:27:44.536Z,2.53
2023-05-02T16:30:46.206Z,4.20
2023-05-02T16:33:47.954Z,4.13
2023-05-02T16:36:49.764Z,4.30
2023-05-02T16:39:51.432Z,3.43
2023-05-02T16:42:53.277Z,5.47
2023-05-02T16:46:21.297Z,4.00
2023-05-02T16:49:22.964Z,4.07
2023-05-02T16:52:25.236Z,4.73
2023-05-02T16:55:26.860Z,3.37
2023-05-02T16:58:29.147Z,5.73
2023-05-02T17:01:31.108Z,7.23
2023-05-02T17:04:32.771Z,8.60
2023-05-02T17:07:34.394Z,9.33
2023-05-02T17:10:36.066Z,8.67
2023-05-02T17:13:37.754Z,5.77
2023-05-02T17:16:42.480Z,9.93
2023-05-02T17:19:44.124Z,7.93
2023-05-02T17:22:46.352Z,6.90
2023-05-02T17:25:48.365Z,5.43
2023-05-02T17:28:53.489Z,7.07
2023-05-02T17:32:00.497Z,5.13
2023-05-02T17:35:02.178Z,7.53
2023-05-02T17:38:03.953Z,6.03
2023-05-02T17:41:05.974Z,6.30
2023-05-02T17:44:07.715Z,5.47
2023-05-02T17:47:09.358Z,5.90
2023-05-02T17:50:11.228Z,4.87
2023-05-02T17:53:12.888Z,7.27
2023-05-02T17:56:17.092Z,5.77
2023-05-02T17:59:19.812Z,4.57
2023-05-02T18:02:22.362Z,6.03
2023-05-02T18:05:25.884Z,8.23
2023-05-02T18:08:27.727Z,9.13
2023-05-02T18:11:29.514Z,11.67
2023-05-02T18:14:31.556Z,9.23
2023-05-02T18:17:33.348Z,7.10
2023-05-02T18:20:38.646Z,8.20
2023-05-02T18:23:40.450Z,6.00
2023-05-02T18:26:42.077Z,4.90
2023-05-02T18:29:43.959Z,5.77
2023-05-02T18:32:45.718Z,7.83
2023-05-02T18:35:48.199Z,9.33
2023-05-02T18:38:49.860Z,11.00
2023-05-02T18:41:51.553Z,8.80
2023-05-02T18:44:53.447Z,7.83
2023-05-02T18:47:55.175Z,7.30
2023-05-02T18:50:57.057Z,8.23
2023-05-02T18:53:58.714Z,4.20
2023-05-02T18:57:00.498Z,5.73
2023-05-02T19:00:02.324Z,5.50
2023-05-02T19:03:04.194Z,9.57
2023-05-02T19:06:05.875Z,10.73
2023-05-02T19:09:07.770Z,11.37
2023-05-02T19:12:09.480Z,20.50
2023-05-02T19:15:11.425Z,8.03
2023-05-02T19:18:14.369Z,11.23
2023-05-02T19:21:16.040Z,11.50
2023-05-02T19:24:19.664Z,9.37
2023-05-02T19:27:21.340Z,6.30
2023-05-02T19:30:23.034Z,7.33
2023-05-02T19:33:24.719Z,11.43
2023-05-02T19:36:27.563Z,8.70
2023-05-02T19:39:29.189Z,8.57
2023-05-02T19:42:30.905Z,7.13
2023-05-02T19:45:32.533Z,12.30
2023-05-02T19:48:34.235Z,8.53
2023-05-02T19:51:35.880Z,4.60
2023-05-02T19:54:37.435Z,8.60
2023-05-02T19:57:40.807Z,9.47
2023-05-02T20:00:42.549Z,7.77
2023-05-02T20:03:44.386Z,8.47
2023-05-02T20:06:46.170Z,8.47
2023-05-02T20:09:47.819Z,7.03
2023-05-02T20:12:49.431Z,6.20
2023-05-02T20:15:51.777Z,5.67
2023-05-02T20:18:53.687Z,9.03
2023-05-02T20:21:55.428Z,9.40
2023-05-02T20:24:57.047Z,6.47
2023-05-02T20:27:58.604Z,4.30
2023-05-02T20:31:01.715Z,7.67
2023-05-02T20:34:03.322Z,4.63
2023-05-02T20:37:05.454Z,5.17
2023-05-02T20:40:09.931Z,4.67
2023-05-02T20:43:12.496Z,3.07
2023-05-02T20:46:16.673Z,5.03
2023-05-02T20:49:18.594Z,3.37
2023-05-02T20:52:20.364Z,5.97
2023-05-02T20:55:23.079Z,3.63
2023-05-02T20:58:24.760Z,3.87
2023-05-02T21:01:26.884Z,3.77
2023-05-02T21:04:28.614Z,5.70
2023-05-02T21:07:30.631Z,5.23
2023-05-02T21:10:32.256Z,4.23
2023-05-02T21:13:33.923Z,5.73
2023-05-02T21:16:36.749Z,3.67
2023-05-02T21:19:38.491Z,4.83
2023-05-02T21:22:40.119Z,8.47
2023-05-02T21:25:41.793Z,5.17
2023-05-02T21:28:43.523Z,4.47
2023-05-02T21:31:45.469Z,3.73
2023-05-02T21:34:47.051Z,5.67
2023-05-02T21:37:48.867Z,6.23
2023-05-02T21:40:50.625Z,6.20
2023-05-02T21:43:52.242Z,4.50
2023-05-02T21:46:53.968Z,6.40
2023-05-02T21:49:56.573Z,5.70
2023-05-02T21:52:58.338Z,5.63
2023-05-02T21:55:59.909Z,6.07
2023-05-02T21:59:01.649Z,6.57
2023-05-02T22:02:03.379Z,7.43
2023-05-02T22:05:05.180Z,7.70
2023-05-02T22:08:07.879Z,6.07
2023-05-02T22:11:10.153Z,8.63
2023-05-02T22:14:11.839Z,5.53
2023-05-02T22:17:13.643Z,5.73
2023-05-02T22:20:15.298Z,9.17
2023-05-02T22:23:16.997Z,6.67
2023-05-02T22:26:18.670Z,5.90
2023-05-02T22:29:20.423Z,7.67
2023-05-02T22:32:25.740Z,4.43
2023-05-02T22:35:27.759Z,4.47
2023-05-02T22:38:29.406Z,5.83
2023-05-02T22:41:31.058Z,5.67
2023-05-02T22:44:35.793Z,9.17
2023-05-02T22:47:42.291Z,6.27
2023-05-02T22:50:46.715Z,4.87
2023-05-02T22:53:49.267Z,4.97
2023-05-02T22:56:50.928Z,7.70
2023-05-02T22:59:52.491Z,4.10
2023-05-02T23:02:56.220Z,3.47
2023-05-02T23:05:57.815Z,7.37
2023-05-02T23:08:59.490Z,10.43
2023-05-02T23:12:02.669Z,5.37
2023-05-02T23:15:04.545Z,4.90
2023-05-02T23:18:06.447Z,5.47
2023-05-02T23:21:13.898Z,3.63
2023-05-02T23:24:15.617Z,5.10
2023-05-02T23:27:17.218Z,4.43
2023-05-02T23:30:19.142Z,6.47
2023-05-02T23:33:21.235Z,7.23
2023-05-02T23:36:22.950Z,6.83
2023-05-02T23:39:24.581Z,5.07
2023-05-02T23:42:26.344Z,5.00
2023-05-02T23:45:28.061Z,4.73
2023-05-02T23:48:29.741Z,7.93
2023-05-02T23:51:32.199Z,5.30
2023-05-02T23:54:35.540Z,6.13
2023-05-02T23:57:37.182Z,4.13
